createdAt,value
2019-03-08T00:02:05.395Z,99.90
2019-03-08T00:04:34.452Z,99.90
2019-03-08T00:07:03.429Z,99.90
2019-03-08T00:09:34.775Z,99.90
2019-03-08T00:12:03.800Z,99.90
2019-03-08T00:14:32.770Z,99.90
2019-03-08T00:17:01.770Z,99.90
2019-03-08T00:19:38.467Z,99.90
2019-03-08T00:22:08.226Z,99.90
2019-03-08T00:24:37.249Z,99.90
2019-03-08T00:27:07.251Z,99.90
2019-03-08T00:29:36.234Z,99.90
2019-03-08T00:32:05.209Z,99.90
2019-03-08T00:34:34.173Z,99.90
2019-03-08T00:37:06.141Z,99.90
2019-03-08T00:39:35.173Z,99.90
2019-03-08T00:42:04.169Z,99.90
2019-03-08T00:44:37.931Z,99.90
2019-03-08T00:47:06.897Z,99.90
2019-03-08T00:49:35.879Z,99.90
2019-03-08T00:52:04.901Z,99.90
2019-03-08T00:54:33.897Z,99.90
2019-03-08T00:57:02.859Z,99.90
2019-03-08T00:59:31.845Z,99.90
2019-03-08T01:02:05.902Z,99.90
2019-03-08T01:04:34.906Z,99.90
2019-03-08T01:07:03.884Z,99.90
2019-03-08T01:09:38.825Z,99.90
2019-03-08T01:12:11.771Z,99.90
2019-03-08T01:14:40.815Z,99.90
2019-03-08T01:17:09.777Z,99.90
2019-03-08T01:19:38.776Z,99.90
2019-03-08T01:22:07.807Z,99.90
2019-03-08T01:24:47.202Z,99.90
2019-03-08T01:27:16.243Z,99.90
2019-03-08T01:29:45.180Z,99.90
2019-03-08T01:32:14.632Z,99.90
2019-03-08T01:34:44.534Z,99.90
2019-03-08T01:37:14.130Z,99.90
2019-03-08T01:39:43.026Z,99.90
2019-03-08T01:42:13.328Z,99.90
2019-03-08T01:44:42.283Z,99.90
2019-03-08T01:47:15.602Z,99.90
2019-03-08T01:49:46.442Z,99.90
2019-03-08T01:52:15.369Z,99.90
2019-03-08T01:54:44.308Z,99.90
2019-03-08T01:57:17.473Z,99.90
2019-03-08T01:59:51.773Z,99.90
2019-03-08T02:02:25.515Z,99.90
2019-03-08T02:04:57.909Z,99.90
2019-03-08T02:07:33.276Z,99.90
2019-03-08T02:10:02.937Z,99.90
2019-03-08T02:12:31.974Z,99.90
2019-03-08T02:15:01.031Z,99.90
2019-03-08T02:17:35.516Z,99.90
2019-03-08T02:20:05.243Z,99.90
2019-03-08T02:22:35.247Z,99.90
2019-03-08T02:25:09.871Z,99.90
2019-03-08T02:27:39.075Z,99.90
2019-03-08T02:30:12.778Z,99.90
2019-03-08T02:32:43.609Z,99.90
2019-03-08T02:35:15.643Z,99.90
2019-03-08T02:37:48.275Z,99.90
2019-03-08T02:40:29.126Z,99.90
2019-03-08T02:42:58.123Z,99.90
2019-03-08T02:45:27.070Z,99.90
2019-03-08T02:47:56.051Z,99.90
2019-03-08T02:50:27.025Z,99.90
2019-03-08T02:53:02.754Z,99.90
2019-03-08T02:55:31.840Z,99.90
2019-03-08T02:58:01.108Z,99.90
2019-03-08T03:00:32.460Z,99.90
2019-03-08T03:03:03.736Z,99.90
2019-03-08T03:05:32.656Z,99.90
2019-03-08T03:08:04.121Z,99.90
2019-03-08T03:10:33.108Z,99.90
2019-03-08T03:13:02.044Z,99.90
2019-03-08T03:15:31.010Z,99.90
2019-03-08T03:18:06.568Z,99.90
2019-03-08T03:20:39.588Z,99.90
2019-03-08T03:23:16.375Z,99.90
2019-03-08T03:25:45.326Z,99.90
2019-03-08T03:28:14.258Z,99.90
2019-03-08T03:30:43.223Z,99.90
2019-03-08T03:33:12.105Z,99.90
2019-03-08T03:35:41.116Z,99.90
2019-03-08T03:38:10.047Z,99.90
2019-03-08T03:40:38.957Z,99.90
2019-03-08T03:43:13.019Z,99.90
2019-03-08T03:45:41.979Z,99.90
2019-03-08T03:48:12.534Z,99.90
2019-03-08T03:50:45.148Z,99.90
2019-03-08T03:53:14.044Z,99.90
2019-03-08T03:55:48.762Z,99.90
2019-03-08T03:58:21.744Z,99.90
2019-03-08T04:00:53.246Z,99.90
2019-03-08T04:03:26.097Z,99.90
2019-03-08T04:05:56.848Z,99.90
2019-03-08T04:08:33.464Z,99.90
2019-03-08T04:11:06.740Z,99.90
2019-03-08T04:13:41.682Z,99.90
2019-03-08T04:16:14.503Z,99.90
2019-03-08T04:18:46.405Z,99.90
2019-03-08T04:21:19.119Z,99.90
2019-03-08T04:23:50.508Z,99.90
2019-03-08T04:26:25.534Z,99.90
2019-03-08T04:28:58.480Z,99.90
2019-03-08T04:31:31.995Z,99.90
2019-03-08T04:34:04.127Z,99.90
2019-03-08T04:36:32.904Z,99.90
2019-03-08T04:39:03.169Z,99.90
2019-03-08T04:41:33.086Z,99.90
2019-03-08T04:44:04.358Z,99.90
2019-03-08T04:46:33.282Z,99.90
2019-03-08T04:49:05.370Z,99.90
2019-03-08T04:51:38.592Z,99.90
2019-03-08T04:54:07.530Z,99.90
2019-03-08T04:56:36.506Z,99.90
2019-03-08T04:59:09.722Z,99.90
2019-03-08T05:01:42.068Z,99.90
2019-03-08T05:04:11.770Z,99.90
2019-03-08T05:06:42.254Z,99.90
2019-03-08T05:09:12.240Z,99.90
2019-03-08T05:11:41.176Z,99.90
2019-03-08T05:14:15.197Z,99.90
2019-03-08T05:16:44.213Z,99.90
2019-03-08T05:19:18.342Z,99.90
2019-03-08T05:21:51.432Z,99.90
2019-03-08T05:24:23.714Z,99.90
2019-03-08T05:26:55.318Z,99.90
2019-03-08T05:29:25.376Z,99.90
2019-03-08T05:31:54.272Z,99.90
2019-03-08T05:34:26.114Z,99.90
2019-03-08T05:37:01.642Z,99.90
2019-03-08T05:39:30.546Z,99.90
2019-03-08T05:42:02.229Z,99.90
2019-03-08T05:44:36.026Z,99.90
2019-03-08T05:47:09.358Z,99.90
2019-03-08T05:49:43.506Z,99.90
2019-03-08T05:52:19.428Z,99.90
2019-03-08T05:54:52.602Z,99.90
2019-03-08T05:57:24.856Z,99.90
2019-03-08T05:59:53.866Z,99.90
2019-03-08T06:02:28.763Z,99.90
2019-03-08T06:05:02.179Z,99.90
2019-03-08T06:07:31.848Z,99.90
2019-03-08T06:10:07.138Z,99.90
2019-03-08T06:12:39.715Z,99.90
2019-03-08T06:15:11.175Z,99.90
2019-03-08T06:17:44.808Z,99.90
2019-03-08T06:20:13.728Z,99.90
2019-03-08T06:22:43.775Z,99.90
2019-03-08T06:25:12.741Z,99.90
2019-03-08T06:27:42.864Z,99.90
2019-03-08T06:30:16.886Z,99.90
2019-03-08T06:32:49.050Z,99.90
2019-03-08T06:35:17.992Z,99.90
2019-03-08T06:37:48.339Z,99.90
2019-03-08T06:40:17.519Z,99.90
2019-03-08T06:42:50.519Z,99.90
2019-03-08T06:45:21.884Z,99.90
2019-03-08T06:47:50.961Z,99.90
2019-03-08T06:50:23.582Z,99.90
2019-03-08T06:52:58.632Z,99.90
2019-03-08T06:55:27.610Z,99.90
2019-03-08T06:58:00.274Z,99.90
2019-03-08T07:00:35.267Z,99.90
2019-03-08T07:03:08.327Z,99.90
2019-03-08T07:05:41.592Z,99.90
2019-03-08T07:08:17.858Z,99.90
2019-03-08T07:10:52.108Z,99.90
2019-03-08T07:13:28.019Z,99.90
2019-03-08T07:15:59.919Z,99.90
2019-03-08T07:18:32.697Z,99.90
2019-03-08T07:21:12.163Z,99.90
2019-03-08T07:28:06.401Z,99.90
2019-03-08T07:30:57.286Z,99.90
2019-03-08T07:33:25.861Z,99.90
2019-03-08T07:36:00.617Z,99.90
2019-03-08T07:38:35.276Z,99.90
2019-03-08T07:41:12.831Z,99.90
2019-03-08T07:44:01.383Z,99.90
2019-03-08T07:46:44.352Z,99.90
2019-03-08T07:49:35.088Z,99.90
2019-03-08T07:52:11.590Z,99.90
2019-03-08T07:54:52.966Z,99.90
2019-03-08T07:58:19.860Z,99.90
2019-03-08T08:01:01.504Z,99.90
2019-03-08T08:03:40.935Z,99.90
2019-03-08T08:06:21.115Z,99.90
2019-03-08T08:13:15.085Z,99.90
2019-03-08T08:15:56.797Z,99.90
2019-03-08T08:18:37.691Z,99.90
2019-03-08T08:21:18.523Z,99.90
2019-03-08T08:23:56.650Z,99.90
2019-03-08T08:26:34.264Z,99.90
2019-03-08T08:29:15.016Z,99.90
2019-03-08T08:31:49.753Z,99.90
2019-03-08T08:35:01.104Z,99.90
2019-03-08T08:37:47.685Z,99.90
2019-03-08T08:40:26.733Z,99.90
2019-03-08T08:47:16.014Z,99.90
2019-03-08T08:52:54.840Z,99.90
2019-03-08T08:55:35.451Z,99.90
2019-03-08T08:58:15.580Z,99.90
2019-03-08T09:00:56.039Z,99.90
2019-03-08T09:03:30.965Z,99.90
2019-03-08T09:06:07.983Z,99.90
2019-03-08T09:08:50.590Z,99.90
2019-03-08T09:11:30.021Z,99.90
2019-03-08T09:14:09.657Z,99.90
2019-03-08T09:16:45.852Z,99.90
2019-03-08T09:19:22.469Z,99.90
2019-03-08T09:22:00.624Z,99.90
2019-03-08T09:26:37.172Z,99.90
2019-03-08T09:29:17.787Z,99.90
2019-03-08T09:32:27.980Z,99.90
2019-03-08T09:35:08.378Z,99.90
2019-03-08T09:40:31.929Z,99.90
2019-03-08T09:43:06.510Z,99.90
2019-03-08T09:46:52.569Z,99.90
2019-03-08T09:49:28.704Z,99.90
2019-03-08T09:54:13.260Z,99.90
2019-03-08T09:57:53.229Z,99.90
2019-03-08T10:00:30.327Z,99.90
2019-03-08T10:03:07.870Z,99.90
2019-03-08T10:05:45.934Z,99.90
2019-03-08T10:10:31.404Z,99.90
2019-03-08T10:13:08.237Z,99.90
2019-03-08T10:15:58.662Z,99.90
2019-03-08T10:18:33.064Z,99.90
2019-03-08T10:21:18.257Z,99.90
2019-03-08T10:23:59.225Z,99.90
2019-03-08T10:26:45.316Z,99.90
2019-03-08T10:29:20.933Z,99.90
2019-03-08T10:31:58.772Z,99.90
2019-03-08T10:34:41.082Z,99.90
2019-03-08T10:38:22.545Z,99.90
2019-03-08T10:40:54.882Z,99.90
2019-03-08T10:43:31.874Z,99.90
2019-03-08T10:46:40.997Z,99.90
2019-03-08T10:49:21.818Z,99.90
2019-03-08T10:52:03.490Z,99.90
2019-03-08T10:54:39.253Z,99.90
2019-03-08T10:57:35.328Z,99.90
2019-03-08T11:00:19.047Z,99.90
2019-03-08T11:03:28.176Z,99.90
2019-03-08T11:06:08.126Z,99.90
2019-03-08T11:08:43.555Z,99.90
2019-03-08T11:11:22.127Z,99.90
2019-03-08T11:13:59.663Z,99.90
2019-03-08T11:16:35.046Z,99.90
2019-03-08T11:19:11.513Z,99.90
2019-03-08T11:21:48.153Z,99.90
2019-03-08T11:26:26.034Z,99.90
2019-03-08T11:29:04.513Z,99.90
2019-03-08T11:31:49.212Z,99.90
2019-03-08T11:34:32.923Z,99.90
2019-03-08T11:37:09.184Z,99.90
2019-03-08T11:39:49.369Z,99.90
2019-03-08T11:42:31.573Z,99.90
2019-03-08T11:45:38.874Z,99.90
2019-03-08T11:48:57.948Z,99.90
2019-03-08T11:51:33.426Z,99.90
2019-03-08T11:54:10.233Z,99.90
2019-03-08T11:56:55.685Z,99.90
2019-03-08T12:00:26.939Z,99.90
2019-03-08T12:03:01.860Z,99.90
2019-03-08T12:05:45.935Z,99.90
2019-03-08T12:08:43.276Z,99.90
2019-03-08T12:11:19.560Z,99.90
2019-03-08T12:14:31.102Z,99.90
2019-03-08T12:19:10.254Z,99.90
2019-03-08T12:21:50.202Z,99.90
2019-03-08T12:24:40.119Z,99.90
2019-03-08T12:27:26.327Z,99.90
2019-03-08T12:30:14.883Z,99.90
2019-03-08T12:32:49.483Z,99.90
2019-03-08T12:35:26.275Z,99.90
2019-03-08T12:38:00.882Z,99.90
2019-03-08T12:41:33.289Z,99.90
2019-03-08T12:44:39.546Z,99.90
2019-03-08T12:47:16.034Z,99.90
2019-03-08T12:50:23.574Z,99.90
2019-03-08T12:52:57.797Z,99.90
2019-03-08T12:55:32.814Z,99.90
2019-03-08T12:58:39.115Z,99.90
2019-03-08T13:04:14.476Z,99.90
2019-03-08T13:09:48.752Z,99.90
2019-03-08T13:12:21.578Z,99.90
2019-03-08T13:14:50.696Z,99.90
2019-03-08T13:17:19.833Z,99.90
2019-03-08T13:19:51.126Z,99.90
2019-03-08T13:22:20.140Z,99.90
2019-03-08T13:24:49.176Z,99.90
2019-03-08T13:27:18.168Z,99.90
2019-03-08T13:29:49.858Z,99.90
2019-03-08T13:32:18.860Z,99.90
2019-03-08T13:34:47.934Z,99.90
2019-03-08T13:37:19.006Z,99.90
2019-03-08T13:39:47.976Z,99.90
2019-03-08T13:42:23.621Z,99.90
2019-03-08T13:44:52.586Z,99.90
2019-03-08T13:47:21.577Z,99.90
2019-03-08T13:49:50.599Z,99.90
2019-03-08T13:52:23.340Z,99.90
2019-03-08T13:54:52.392Z,99.90
2019-03-08T13:57:21.519Z,99.90
2019-03-08T13:59:54.313Z,99.90
2019-03-08T14:02:23.275Z,99.90
2019-03-08T14:04:52.217Z,99.90
2019-03-08T14:07:25.945Z,99.90
2019-03-08T14:09:55.040Z,99.90
2019-03-08T14:12:24.038Z,99.90
2019-03-08T14:14:52.993Z,99.90
2019-03-08T14:17:26.221Z,99.90
2019-03-08T14:19:56.598Z,99.90
2019-03-08T14:22:25.584Z,99.90
2019-03-08T14:24:55.633Z,99.90
2019-03-08T14:27:24.596Z,99.90
2019-03-08T14:29:55.191Z,99.90
2019-03-08T14:32:25.287Z,99.80
2019-03-08T14:34:55.006Z,98.70
2019-03-08T14:37:23.703Z,97.00
2019-03-08T14:39:53.663Z,96.90
2019-03-08T14:42:27.901Z,97.90
2019-03-08T14:45:22.832Z,97.80
2019-03-08T14:47:56.202Z,97.00
2019-03-08T14:50:31.952Z,97.90
2019-03-08T14:52:58.339Z,98.80
2019-03-08T14:55:28.258Z,99.90
2019-03-08T14:57:58.988Z,99.90
2019-03-08T15:00:29.146Z,99.70
2019-03-08T15:02:55.378Z,99.50
2019-03-08T15:05:24.338Z,99.80
2019-03-08T15:07:53.331Z,99.30
2019-03-08T15:10:22.307Z,99.90
2019-03-08T15:12:53.085Z,99.90
2019-03-08T15:15:20.450Z,99.90
2019-03-08T15:17:49.734Z,99.90
2019-03-08T15:20:18.801Z,99.90
2019-03-08T15:22:47.784Z,99.90
2019-03-08T15:25:16.769Z,99.90
2019-03-08T15:27:45.808Z,99.90
2019-03-08T15:30:15.858Z,99.90
2019-03-08T15:32:44.975Z,99.90
2019-03-08T15:35:14.187Z,99.90
2019-03-08T15:37:44.559Z,99.90
2019-03-08T15:40:14.649Z,99.90
2019-03-08T15:42:43.600Z,99.90
2019-03-08T15:45:12.665Z,99.90
2019-03-08T15:47:42.138Z,99.90
2019-03-08T15:50:13.111Z,99.90
2019-03-08T15:52:42.141Z,99.90
2019-03-08T15:55:12.880Z,99.90
2019-03-08T15:57:42.008Z,99.90
2019-03-08T16:00:14.702Z,99.90
2019-03-08T16:02:43.708Z,99.90
2019-03-08T16:05:12.764Z,99.90
2019-03-08T16:07:49.054Z,99.90
2019-03-08T16:10:25.091Z,99.90
2019-03-08T16:12:56.662Z,99.90
2019-03-08T16:15:25.610Z,99.90
2019-03-08T16:18:00.328Z,99.90
2019-03-08T16:20:37.296Z,99.90
2019-03-08T16:23:06.914Z,99.90
2019-03-08T16:25:35.444Z,99.90
2019-03-08T16:28:08.113Z,99.90
2019-03-08T16:30:38.393Z,99.90
2019-03-08T16:33:14.290Z,99.90
2019-03-08T16:35:53.543Z,99.90
2019-03-08T16:38:28.448Z,99.90
2019-03-08T16:41:04.115Z,99.90
2019-03-08T16:43:48.366Z,99.90
2019-03-08T16:48:25.051Z,99.90
2019-03-08T16:51:01.396Z,99.90
2019-03-08T16:53:44.155Z,99.90
2019-03-08T16:56:18.268Z,99.90
2019-03-08T16:58:52.623Z,99.90
2019-03-08T17:03:30.194Z,99.90
2019-03-08T17:06:07.131Z,99.90
2019-03-08T17:09:09.265Z,99.90
2019-03-08T17:11:55.391Z,99.90
2019-03-08T17:14:31.680Z,99.90
2019-03-08T17:17:16.118Z,99.90
2019-03-08T17:19:55.095Z,99.90
2019-03-08T17:22:29.599Z,99.90
2019-03-08T17:25:05.114Z,99.90
2019-03-08T17:27:40.295Z,99.90
2019-03-08T17:30:17.585Z,99.90
2019-03-08T17:33:00.792Z,99.90
2019-03-08T17:35:38.545Z,99.90
2019-03-08T17:38:21.838Z,99.90
2019-03-08T17:41:11.282Z,99.90
2019-03-08T17:43:46.876Z,99.90
2019-03-08T17:46:22.005Z,99.90
2019-03-08T17:48:59.210Z,99.90
2019-03-08T17:52:34.304Z,99.90
2019-03-08T17:55:48.449Z,99.90
2019-03-08T17:58:25.734Z,99.90
2019-03-08T18:01:02.994Z,99.90
2019-03-08T18:03:38.778Z,99.90
2019-03-08T18:06:28.206Z,99.90
2019-03-08T18:09:06.456Z,99.90
2019-03-08T18:13:50.914Z,99.90
2019-03-08T18:16:26.111Z,99.90
2019-03-08T18:19:12.984Z,99.90
2019-03-08T18:21:47.474Z,99.90
2019-03-08T18:24:23.763Z,99.90
2019-03-08T18:26:59.237Z,99.90
2019-03-08T18:29:41.604Z,99.90
2019-03-08T18:32:21.701Z,99.90
2019-03-08T18:34:56.146Z,99.90
2019-03-08T18:37:36.074Z,99.90
2019-03-08T18:40:30.689Z,99.90
2019-03-08T18:43:04.844Z,99.90
2019-03-08T18:45:38.072Z,99.90
2019-03-08T18:48:19.166Z,99.90
2019-03-08T18:51:55.580Z,99.90
2019-03-08T18:54:35.634Z,99.90
2019-03-08T18:57:11.884Z,99.90
2019-03-08T18:59:49.019Z,99.90
2019-03-08T19:02:29.898Z,99.90
2019-03-08T19:05:16.859Z,99.90
2019-03-08T19:07:58.169Z,99.90
2019-03-08T19:10:44.373Z,99.90
2019-03-08T19:14:21.746Z,99.90
2019-03-08T19:16:58.551Z,99.90
2019-03-08T19:19:33.619Z,99.90
2019-03-08T19:22:07.007Z,99.90
2019-03-08T19:24:43.590Z,99.90
2019-03-08T19:27:19.543Z,99.90
2019-03-08T19:31:57.316Z,99.90
2019-03-08T19:34:30.612Z,99.90
2019-03-08T19:37:15.624Z,99.90
2019-03-08T19:40:02.292Z,99.90
2019-03-08T19:42:38.786Z,99.90
2019-03-08T19:45:22.121Z,99.90
2019-03-08T19:47:58.963Z,99.90
2019-03-08T19:50:34.650Z,99.90
2019-03-08T19:53:15.386Z,99.90
2019-03-08T19:55:52.842Z,99.90
2019-03-08T19:59:26.244Z,99.90
2019-03-08T20:04:56.445Z,99.90
2019-03-08T20:07:33.954Z,99.90
2019-03-08T20:10:16.514Z,99.90
2019-03-08T20:12:55.085Z,99.90
2019-03-08T20:16:01.952Z,99.90
2019-03-08T20:18:37.986Z,99.90
2019-03-08T20:21:15.322Z,99.90
2019-03-08T20:24:52.368Z,99.90
2019-03-08T20:27:26.669Z,99.90
2019-03-08T20:30:06.994Z,99.90
2019-03-08T20:33:44.985Z,99.90
2019-03-08T20:36:20.241Z,99.90
2019-03-08T20:39:26.677Z,99.90
2019-03-08T20:42:04.540Z,99.90
2019-03-08T20:44:39.137Z,99.90
2019-03-08T20:47:11.712Z,99.90
2019-03-08T20:49:40.818Z,99.90
2019-03-08T20:52:12.204Z,99.90
2019-03-08T20:54:43.180Z,99.90
2019-03-08T20:57:16.178Z,99.90
2019-03-08T20:59:45.319Z,99.90
2019-03-08T21:02:15.874Z,99.90
2019-03-08T21:04:47.042Z,99.90
2019-03-08T21:07:21.387Z,99.90
2019-03-08T21:09:50.525Z,99.90
2019-03-08T21:12:19.602Z,99.90
2019-03-08T21:14:48.721Z,99.90
2019-03-08T21:17:20.421Z,99.90
2019-03-08T21:19:49.504Z,99.90
2019-03-08T21:22:21.479Z,99.90
2019-03-08T21:24:52.103Z,99.90
2019-03-08T21:27:21.883Z,99.90
2019-03-08T21:29:52.182Z,99.90
2019-03-08T21:32:24.241Z,99.90
2019-03-08T21:34:58.509Z,99.90
2019-03-08T21:37:30.234Z,99.90
2019-03-08T21:40:02.826Z,99.90
2019-03-08T21:42:36.900Z,99.90
2019-03-08T21:45:08.264Z,99.90
2019-03-08T21:47:39.580Z,99.90
2019-03-08T21:50:10.552Z,99.90
2019-03-08T21:52:43.337Z,99.90
2019-03-08T21:55:16.796Z,99.90
2019-03-08T21:57:48.662Z,99.90
2019-03-08T22:00:25.552Z,99.90
2019-03-08T22:02:55.093Z,99.90
2019-03-08T22:05:32.015Z,99.90
2019-03-08T22:08:03.886Z,99.90
2019-03-08T22:10:43.021Z,99.90
2019-03-08T22:13:14.208Z,99.90
2019-03-08T22:15:43.344Z,99.90
2019-03-08T22:18:15.094Z,99.90
2019-03-08T22:20:47.761Z,99.90
2019-03-08T22:23:18.306Z,99.90
2019-03-08T22:25:50.840Z,99.90
2019-03-08T22:28:19.818Z,99.90
2019-03-08T22:31:07.695Z,99.90
2019-03-08T22:33:40.389Z,99.90
2019-03-08T22:36:16.922Z,99.90
2019-03-08T22:38:50.339Z,99.90
2019-03-08T22:41:19.502Z,99.90
2019-03-08T22:43:50.358Z,99.90
2019-03-08T22:46:19.370Z,99.90
2019-03-08T22:48:51.334Z,99.90
2019-03-08T22:51:27.080Z,99.90
2019-03-08T22:54:03.789Z,99.90
2019-03-08T22:56:32.887Z,99.90
2019-03-08T22:59:08.977Z,99.90
2019-03-08T23:01:56.560Z,99.90
2019-03-08T23:04:25.533Z,99.90
2019-03-08T23:06:56.433Z,99.90
2019-03-08T23:09:26.976Z,99.90
2019-03-08T23:11:58.522Z,99.90
2019-03-08T23:14:27.516Z,99.90
2019-03-08T23:16:56.484Z,99.90
2019-03-08T23:19:26.792Z,99.90
2019-03-08T23:22:03.935Z,99.90
2019-03-08T23:24:36.008Z,99.90
2019-03-08T23:28:10.933Z,99.90
2019-03-08T23:30:39.991Z,99.90
2019-03-08T23:33:08.932Z,99.90
2019-03-08T23:35:37.919Z,99.90
2019-03-08T23:38:10.430Z,99.90
2019-03-08T23:40:42.863Z,99.90
2019-03-08T23:43:11.882Z,99.90
2019-03-08T23:45:44.651Z,99.90
2019-03-08T23:48:15.942Z,99.90
2019-03-08T23:50:46.970Z,99.90
2019-03-08T23:53:17.098Z,99.90
2019-03-08T23:55:46.016Z,99.90
2019-03-08T23:58:17.519Z,99.90
